createdAt,value
2022-09-15T00:01:40.722Z,0
2022-09-15T00:16:40.692Z,0
2022-09-15T00:31:40.599Z,0
2022-09-15T00:46:40.538Z,0
2022-09-15T01:01:40.799Z,0
2022-09-15T01:16:40.529Z,0
2022-09-15T01:31:40.551Z,0
2022-09-15T01:46:40.447Z,0
2022-09-15T02:01:40.761Z,0
2022-09-15T02:16:40.441Z,0
2022-09-15T02:31:40.408Z,0
2022-09-15T02:46:40.349Z,0
2022-09-15T03:01:40.387Z,0
2022-09-15T03:16:40.432Z,0
2022-09-15T03:31:40.313Z,0
2022-09-15T03:46:40.248Z,0
2022-09-15T04:01:40.357Z,0
2022-09-15T04:16:40.294Z,0
2022-09-15T04:31:40.215Z,0
2022-09-15T05:01:40.180Z,0
2022-09-15T05:16:40.325Z,0
2022-09-15T05:31:40.138Z,0
2022-09-15T05:46:40.118Z,0
2022-09-15T06:01:40.108Z,0
2022-09-15T06:16:40.214Z,0
2022-09-15T06:31:40.018Z,0
2022-09-15T06:46:40.041Z,0
2022-09-15T07:16:40.013Z,0
2022-09-15T07:31:39.945Z,0
2022-09-15T07:46:39.856Z,0
2022-09-15T08:01:39.895Z,0
2022-09-15T08:16:39.872Z,0
2022-09-15T08:31:39.813Z,0
2022-09-15T08:46:39.829Z,0
2022-09-15T09:01:39.853Z,0
2022-09-15T09:16:39.726Z,4
2022-09-15T09:31:39.711Z,0
2022-09-15T09:46:39.704Z,0
2022-09-15T10:01:39.660Z,0
2022-09-15T10:16:39.699Z,0
2022-09-15T10:31:39.632Z,0
2022-09-15T10:46:39.612Z,0
2022-09-15T11:01:39.569Z,0
2022-09-15T11:16:39.546Z,0
2022-09-15T11:46:39.490Z,0
2022-09-15T12:01:39.504Z,0
2022-09-15T12:16:39.396Z,0
2022-09-15T12:31:39.499Z,0
2022-09-15T12:46:39.378Z,0
2022-09-15T13:01:39.413Z,0
2022-09-15T13:16:39.279Z,0
2022-09-15T13:31:39.272Z,0
2022-09-15T13:46:39.235Z,0
2022-09-15T14:01:39.383Z,0
2022-09-15T14:16:39.424Z,0
2022-09-15T14:31:39.253Z,0
2022-09-15T14:46:39.121Z,0
2022-09-15T15:01:39.109Z,0
2022-09-15T15:16:39.211Z,0
2022-09-15T15:31:39.179Z,0
2022-09-15T15:46:38.997Z,0
2022-09-15T16:01:39.046Z,0
2022-09-15T16:16:39.005Z,0
2022-09-15T16:31:39.007Z,127
2022-09-15T16:46:38.916Z,99
2022-09-15T17:01:38.961Z,113
2022-09-15T17:16:38.856Z,30
2022-09-15T17:31:38.922Z,114
2022-09-15T17:46:38.833Z,125
2022-09-15T18:01:38.861Z,2
2022-09-15T18:16:38.759Z,1
2022-09-15T18:31:38.754Z,0
2022-09-15T18:46:38.739Z,1
2022-09-15T19:01:38.847Z,1
2022-09-15T19:16:56.682Z,0
2022-09-15T19:31:42.018Z,0
2022-09-15T19:46:38.631Z,0
2022-09-15T20:01:38.635Z,2
2022-09-15T20:16:38.660Z,5
2022-09-15T20:31:38.573Z,2
2022-09-15T20:46:38.496Z,4
2022-09-15T21:01:38.539Z,0
2022-09-15T21:16:38.485Z,0
2022-09-15T21:31:38.505Z,0
2022-09-15T21:46:38.405Z,0
2022-09-15T22:01:38.408Z,0
2022-09-15T22:16:38.501Z,0
2022-09-15T22:31:38.442Z,0
2022-09-15T22:46:38.316Z,0
2022-09-15T23:01:38.360Z,0
2022-09-15T23:16:38.319Z,0
2022-09-15T23:31:38.385Z,0
2022-09-15T23:46:38.276Z,0
